Time;durP1;ratioP1;P1;durP2;ratioP2;P2;SDS_P1;SDS_P2;PMS_P1;PMS_P2;Temp;Humidity;BMP_temperature;BMP_pressure;BME280_temperature;BME280_humidity;BME280_pressure;Samples;Min_cycle;Max_cycle;Signal;HPM_P1;HPM_P2
2023/01/03 00:02:17;;;;;;;;;9.25;9.25;;;;;8.06;81.15;100775.31;5037196;28;8951;-60
2023/01/03 00:04:46;;;;;;;;;3.80;3.00;;;;;8.00;81.66;100773.00;5036567;28;8962;-59
2023/01/03 00:07:32;;;;;;;;;7.40;7.00;;;;;7.94;81.96;100776.84;5037148;28;8844;-59
2023/01/03 00:10:00;;;;;;;;;4.40;3.40;;;;;7.89;81.51;100776.25;5036879;28;8821;-59
2023/01/03 00:12:28;;;;;;;;;6.00;5.00;;;;;7.86;81.71;100775.56;5037402;28;9701;-59
2023/01/03 00:14:58;;;;;;;;;8.20;8.20;;;;;7.83;81.75;100779.22;5037505;28;8841;-58
2023/01/03 00:17:26;;;;;;;;;4.00;4.00;;;;;7.82;81.70;100780.16;5037258;28;8852;-59
2023/01/03 00:19:53;;;;;;;;;5.60;4.00;;;;;7.86;81.47;100787.03;5037103;28;8879;-59
2023/01/03 00:22:21;;;;;;;;;5.60;4.00;;;;;7.90;81.80;100785.91;5037272;28;8843;-59
2023/01/03 00:24:49;;;;;;;;;6.00;4.00;;;;;7.95;81.27;100783.84;5037069;28;8840;-59
2023/01/03 00:27:17;;;;;;;;;7.00;7.00;;;;;8.00;81.07;100776.47;5037609;28;8828;-59
2023/01/03 00:29:44;;;;;;;;;9.00;7.00;;;;;8.06;81.78;100778.81;5036832;28;8871;-59
2023/01/03 00:32:12;;;;;;;;;5.60;4.00;;;;;8.10;80.87;100777.69;5036493;28;8825;-59
2023/01/03 00:34:40;;;;;;;;;9.20;7.80;;;;;8.14;81.45;100791.66;5036952;28;8946;-58
2023/01/03 00:37:08;;;;;;;;;9.00;7.40;;;;;8.12;80.71;100777.59;5037344;28;9554;-59
2023/01/03 00:39:36;;;;;;;;;9.00;7.00;;;;;8.03;81.14;100778.97;5036813;28;9495;-59
2023/01/03 00:42:04;;;;;;;;;7.00;6.25;;;;;7.94;81.09;100778.63;5036927;28;8839;-59
2023/01/03 00:44:32;;;;;;;;;5.00;4.00;;;;;7.85;81.50;100782.63;5036358;28;9611;-59
2023/01/03 00:47:00;;;;;;;;;6.75;6.50;;;;;7.77;81.45;100782.19;5034997;28;8852;-59
2023/01/03 00:49:27;;;;;;;;;6.25;6.00;;;;;7.70;81.65;100791.44;5034765;28;8829;-59
2023/01/03 00:51:55;;;;;;;;;4.00;4.00;;;;;7.66;81.60;100793.50;5035404;28;8970;-58
2023/01/03 00:54:23;;;;;;;;;5.00;5.00;;;;;7.62;82.03;100802.53;5035293;28;8836;-58
2023/01/03 00:56:51;;;;;;;;;5.00;4.00;;;;;7.59;81.92;100797.41;5035311;28;8832;-59
2023/01/03 00:59:19;;;;;;;;;6.00;5.60;;;;;7.57;82.16;100800.13;5035204;28;8985;-60
2023/01/03 01:01:47;;;;;;;;;5.20;5.20;;;;;7.56;82.27;100794.91;5035434;28;8829;-59
2023/01/03 01:04:15;;;;;;;;;5.20;5.20;;;;;7.54;82.15;100800.31;5035516;28;8913;-60
2023/01/03 01:06:43;;;;;;;;;3.60;3.40;;;;;7.51;81.90;100810.22;5035960;28;8879;-59
2023/01/03 01:09:11;;;;;;;;;4.00;3.50;;;;;7.49;82.00;100806.81;5036177;28;8832;-60
2023/01/03 01:11:39;;;;;;;;;4.00;3.40;;;;;7.50;82.39;100816.47;5034214;28;8844;-59
2023/01/03 01:14:18;;;;;;;;;5.20;4.40;;;;;7.51;82.21;100821.66;5034591;28;8848;-60
2023/01/03 01:16:46;;;;;;;;;7.00;5.60;;;;;7.53;81.82;100824.22;5035224;28;8844;-59
2023/01/03 01:19:14;;;;;;;;;4.00;4.00;;;;;7.53;82.17;100818.94;5035202;28;9514;-59
2023/01/03 01:21:42;;;;;;;;;7.00;4.00;;;;;7.52;81.85;100827.81;5035808;28;8855;-60
2023/01/03 01:24:09;;;;;;;;;4.00;4.00;;;;;7.51;82.02;100831.41;5035911;28;8817;-59
2023/01/03 01:26:44;;;;;;;;;6.80;5.60;;;;;7.45;82.12;100832.59;5035881;28;9506;-59
2023/01/03 01:29:12;;;;;;;;;4.40;3.00;;;;;7.41;81.59;100838.97;5036012;28;8892;-58
2023/01/03 01:31:39;;;;;;;;;3.20;3.00;;;;;7.42;81.89;100834.56;5036061;28;8828;-59
2023/01/03 01:34:07;;;;;;;;;6.20;4.40;;;;;7.40;81.81;100831.97;5035379;28;8852;-58
2023/01/03 01:36:36;;;;;;;;;6.00;6.00;;;;;7.40;82.11;100837.28;5035439;28;8850;-58
2023/01/03 01:39:04;;;;;;;;;6.40;6.20;;;;;7.37;82.11;100839.22;5035128;28;8839;-59
2023/01/03 01:47:02;;;;;;;;;2.20;2.20;;;;;7.29;82.31;100849.38;5035259;28;8841;-59
2023/01/03 01:49:30;;;;;;;;;3.00;3.00;;;;;7.25;81.85;100853.97;5035249;28;8849;-59
2023/01/03 01:51:57;;;;;;;;;3.60;3.00;;;;;7.23;82.49;100857.63;5034854;28;8833;-58
2023/01/03 01:54:25;;;;;;;;;3.00;1.00;;;;;7.26;82.01;100857.44;5035554;28;8821;-59
2023/01/03 01:56:53;;;;;;;;;3.00;3.00;;;;;7.29;82.00;100863.44;5035704;28;8820;-60
2023/01/03 01:59:21;;;;;;;;;7.80;6.00;;;;;7.34;81.82;100865.91;5035133;28;8857;-59
2023/01/03 02:01:48;;;;;;;;;4.00;3.75;;;;;7.38;81.81;100867.44;5035011;28;8856;-58
2023/01/03 02:04:16;;;;;;;;;6.20;5.60;;;;;7.42;81.95;100869.00;5034847;28;8947;-60
2023/01/03 02:06:44;;;;;;;;;6.40;4.00;;;;;7.46;81.92;100875.84;5035285;28;8863;-59
2023/01/03 02:09:11;;;;;;;;;3.80;3.80;;;;;7.48;81.66;100874.81;5035595;28;8825;-59
2023/01/03 02:11:39;;;;;;;;;4.80;3.40;;;;;7.51;81.53;100873.81;5035185;28;8840;-59
2023/01/03 02:14:07;;;;;;;;;5.40;3.80;;;;;7.49;81.96;100881.84;5035257;28;8832;-59
2023/01/03 02:16:35;;;;;;;;;3.00;3.00;;;;;7.49;81.09;100875.69;5035492;28;8820;-60
2023/01/03 02:19:02;;;;;;;;;4.00;4.00;;;;;7.52;81.45;100872.88;5035665;28;8938;-60
2023/01/03 02:21:30;;;;;;;;;6.80;6.00;;;;;7.53;81.41;100870.16;5035463;28;8842;-58
2023/01/03 02:23:58;;;;;;;;;4.00;4.00;;;;;7.50;81.53;100872.09;5035175;28;9589;-59
2023/01/03 02:26:26;;;;;;;;;3.60;3.60;;;;;7.47;81.57;100867.81;5034673;28;9490;-60
2023/01/03 02:28:54;;;;;;;;;2.00;2.00;;;;;7.44;81.37;100875.06;5035079;28;8820;-60
2023/01/03 02:31:24;;;;;;;;;3.00;1.00;;;;;7.42;81.75;100874.31;5035241;28;8837;-59
2023/01/03 02:33:51;;;;;;;;;3.00;3.00;;;;;7.40;81.66;100876.16;5034715;28;8848;-59
2023/01/03 02:36:19;;;;;;;;;3.80;3.00;;;;;7.39;81.34;100874.44;5034596;28;8832;-59
2023/01/03 02:38:47;;;;;;;;;3.80;3.00;;;;;7.36;81.56;100883.41;5034942;28;9537;-59
2023/01/03 02:41:15;;;;;;;;;3.25;3.25;;;;;7.34;81.62;100892.38;5035530;28;8840;-60
2023/01/03 02:43:45;;;;;;;;;6.00;6.00;;;;;7.31;81.97;100889.88;5034052;28;8824;-59
2023/01/03 02:46:13;;;;;;;;;3.60;3.20;;;;;7.25;81.63;100895.47;5033611;28;8820;-58
2023/01/03 02:48:41;;;;;;;;;4.40;4.00;;;;;7.20;81.75;100901.00;5034792;28;8938;-60
2023/01/03 02:51:09;;;;;;;;;2.20;1.80;;;;;7.16;81.92;100901.25;5034366;28;8829;-60
2023/01/03 02:53:37;;;;;;;;;4.80;2.60;;;;;7.14;81.65;100908.41;5033896;28;8836;-59
2023/01/03 02:56:04;;;;;;;;;5.40;4.20;;;;;7.11;82.34;100903.25;5034170;28;8832;-60
2023/01/03 02:58:32;;;;;;;;;3.00;1.80;;;;;7.12;81.58;100900.53;5034346;28;8861;-59
2023/01/03 03:01:00;;;;;;;;;3.80;3.20;;;;;7.13;81.93;100909.34;5034469;28;8890;-60
2023/01/03 03:03:28;;;;;;;;;3.40;3.00;;;;;7.14;81.81;100905.78;5034142;28;8833;-60
2023/01/03 03:05:56;;;;;;;;;3.40;3.40;;;;;7.15;81.81;100900.41;5034646;28;9549;-59
2023/01/03 03:08:24;;;;;;;;;3.00;3.00;;;;;7.16;81.70;100909.19;5034952;28;8829;-59
2023/01/03 03:13:36;;;;;;;;;3.00;2.20;;;;;7.19;81.43;100903.75;5038595;28;8987;-60
2023/01/03 03:16:04;;;;;;;;;3.60;3.00;;;;;7.22;81.32;100906.25;5039184;28;8820;-60
2023/01/03 03:18:32;;;;;;;;;5.60;3.80;;;;;7.24;81.11;100901.72;5038538;28;8856;-60
2023/01/03 03:26:30;;;;;;;;;3.00;3.00;;;;;7.33;80.91;100909.19;5037559;28;8859;-57
2023/01/03 03:28:57;;;;;;;;;2.50;2.50;;;;;7.34;80.88;100908.28;5038195;28;8851;-59
2023/01/03 03:31:24;;;;;;;;;6.60;4.00;;;;;7.34;81.01;100916.22;5037936;28;8951;-60
2023/01/03 03:33:52;;;;;;;;;3.00;3.00;;;;;7.33;81.10;100915.34;5038353;28;8843;-58
2023/01/03 03:36:20;;;;;;;;;4.40;3.20;;;;;7.32;81.33;100916.28;5038331;28;8841;-60
2023/01/03 03:38:51;;;;;;;;;2.00;2.00;;;;;7.31;81.16;100913.72;5038460;28;8828;-59
2023/01/03 03:46:48;;;;;;;;;4.00;4.00;;;;;7.13;81.51;100910.19;5038174;28;8848;-60
2023/01/03 03:49:39;;;;;;;;;3.00;3.00;;;;;7.09;81.55;100918.38;5038469;28;8851;-60
2023/01/03 03:52:07;;;;;;;;;4.00;4.00;;;;;7.04;81.42;100920.41;5036550;28;8847;-60
2023/01/03 03:54:35;;;;;;;;;4.00;3.00;;;;;7.00;81.19;100922.34;5037389;28;8833;-59
2023/01/03 03:57:02;;;;;;;;;3.40;3.00;;;;;6.93;81.57;100928.00;5037746;28;8828;-60
2023/01/03 03:59:30;;;;;;;;;3.00;3.00;;;;;6.89;81.64;100921.16;5037848;28;8833;-59
2023/01/03 04:01:58;;;;;;;;;5.60;4.00;;;;;6.85;82.01;100919.59;5037373;28;8896;-59
2023/01/03 04:04:26;;;;;;;;;4.40;4.00;;;;;6.82;81.68;100923.25;5037424;28;8833;-60
2023/01/03 04:06:53;;;;;;;;;2.60;1.00;;;;;6.77;81.75;100919.09;5036845;28;8836;-60
2023/01/03 04:09:21;;;;;;;;;3.60;3.60;;;;;6.74;81.78;100916.63;5036516;28;8816;-59
2023/01/03 04:11:49;;;;;;;;;4.00;4.00;;;;;6.71;82.18;100925.56;5036488;28;8856;-60
2023/01/03 04:14:17;;;;;;;;;6.20;4.00;;;;;6.70;82.13;100923.84;5036703;28;8930;-60
2023/01/03 04:16:45;;;;;;;;;2.60;2.60;;;;;6.68;81.92;100922.19;5036500;28;8867;-60
2023/01/03 04:19:12;;;;;;;;;4.40;4.00;;;;;6.65;82.00;100922.34;5036841;28;8842;-60
2023/01/03 04:21:40;;;;;;;;;4.40;4.00;;;;;6.61;82.05;100921.63;5036957;28;8844;-60
2023/01/03 04:24:08;;;;;;;;;3.20;3.20;;;;;6.58;81.99;100926.19;5037150;28;8859;-60
2023/01/03 04:26:35;;;;;;;;;3.00;3.00;;;;;6.53;82.59;100929.06;5036648;28;8833;-61
2023/01/03 04:29:03;;;;;;;;;2.20;2.20;;;;;6.50;82.17;100933.66;5037170;28;8875;-60
2023/01/03 04:31:31;;;;;;;;;3.00;3.00;;;;;6.49;82.02;100930.16;5036635;28;8843;-61
2023/01/03 04:33:58;;;;;;;;;4.00;4.00;;;;;6.50;82.28;100923.06;5035872;28;8836;-61
2023/01/03 04:36:26;;;;;;;;;6.00;3.60;;;;;6.50;81.92;100923.94;5036610;28;8832;-61
2023/01/03 04:38:54;;;;;;;;;4.00;4.00;;;;;6.51;82.20;100924.81;5036095;28;8828;-60
2023/01/03 04:41:22;;;;;;;;;3.80;3.80;;;;;6.53;81.95;100936.16;5036061;28;8828;-61
2023/01/03 04:44:00;;;;;;;;;3.00;3.00;;;;;6.55;82.03;100924.59;5036071;28;8918;-60
2023/01/03 04:46:28;;;;;;;;;4.00;4.00;;;;;6.58;81.93;100934.13;5036007;28;8832;-58
2023/01/03 04:48:56;;;;;;;;;6.00;4.80;;;;;6.58;81.99;100931.50;5036122;28;8890;-60
2023/01/03 04:51:24;;;;;;;;;6.80;6.20;;;;;6.53;81.99;100929.06;5036225;28;8919;-60
2023/01/03 04:53:51;;;;;;;;;3.00;3.00;;;;;6.49;81.90;100931.94;5035315;28;8813;-60
2023/01/03 04:56:19;;;;;;;;;3.40;3.00;;;;;6.42;81.89;100931.38;5035605;28;8836;-60
2023/01/03 04:58:47;;;;;;;;;3.80;3.20;;;;;6.36;81.83;100936.09;5035168;28;8828;-59
2023/01/03 05:01:14;;;;;;;;;3.00;3.00;;;;;6.28;82.26;100940.84;5035729;28;8836;-60
2023/01/03 05:03:42;;;;;;;;;1.00;1.00;;;;;6.21;82.32;100942.09;5035734;28;9255;-59
2023/01/03 05:06:10;;;;;;;;;5.80;3.40;;;;;6.11;82.53;100941.66;5035441;28;8825;-59
2023/01/03 05:08:38;;;;;;;;;3.00;2.60;;;;;6.02;82.08;100944.72;5035328;28;8832;-60
2023/01/03 05:11:06;;;;;;;;;3.60;2.60;;;;;5.97;82.64;100940.53;5035762;28;8837;-60
2023/01/03 05:13:34;;;;;;;;;4.40;4.00;;;;;5.99;82.74;100944.00;5035401;28;8851;-60
2023/01/03 05:16:02;;;;;;;;;1.40;1.00;;;;;6.03;82.70;100948.22;5035471;28;8844;-60
2023/01/03 05:18:29;;;;;;;;;5.80;4.40;;;;;6.08;82.81;100946.22;5035365;28;9491;-60
2023/01/03 05:26:27;;;;;;;;;3.60;3.60;;;;;6.17;82.11;100951.09;5036049;28;8856;-60
2023/01/03 05:28:55;;;;;;;;;3.80;3.60;;;;;6.17;81.95;100951.09;5035800;28;8828;-61
2023/01/03 05:31:22;;;;;;;;;4.00;3.00;;;;;6.17;82.15;100951.09;5035837;28;8844;-60
2023/01/03 05:33:50;;;;;;;;;4.20;4.20;;;;;6.18;82.74;100955.44;5034596;28;8825;-60
2023/01/03 05:36:18;;;;;;;;;4.00;3.40;;;;;6.22;81.98;100946.47;5035741;28;8829;-60
2023/01/03 05:38:46;;;;;;;;;4.40;3.20;;;;;6.26;81.91;100948.00;5035388;28;9475;-60
2023/01/03 05:41:58;;;;;;;;;4.80;4.00;;;;;6.32;81.97;100945.09;5035546;28;9518;-61
2023/01/03 05:44:01;;;;;;;;;3.00;1.80;;;;;6.37;81.70;100951.03;5035075;28;8894;-60
2023/01/03 05:46:29;;;;;;;;;4.40;4.40;;;;;6.39;81.75;100949.19;5035106;28;8918;-60
2023/01/03 05:48:56;;;;;;;;;3.40;3.40;;;;;6.38;81.67;100950.94;5034332;28;8949;-60
2023/01/03 05:51:24;;;;;;;;;3.00;3.00;;;;;6.39;81.75;100951.81;5034938;28;8825;-60
2023/01/03 05:53:51;;;;;;;;;4.80;4.00;;;;;6.39;81.74;100947.41;5035152;28;8836;-60
2023/01/03 05:56:20;;;;;;;;;5.60;5.60;;;;;6.37;81.75;100956.34;5034588;28;8843;-60
2023/01/03 05:58:48;;;;;;;;;3.80;3.80;;;;;6.32;81.46;100956.53;5034896;28;8866;-60
2023/01/03 06:01:15;;;;;;;;;4.00;4.00;;;;;6.26;81.86;100959.47;5035431;28;8825;-60
2023/01/03 06:03:43;;;;;;;;;4.00;4.00;;;;;6.16;82.10;100960.78;5034877;28;8867;-60
2023/01/03 06:06:11;;;;;;;;;3.00;3.00;;;;;6.06;82.01;100961.31;5034997;28;8837;-59
2023/01/03 06:08:38;;;;;;;;;6.00;3.80;;;;;5.96;82.16;100960.84;5035332;28;8848;-61
2023/01/03 06:11:06;;;;;;;;;2.60;2.60;;;;;5.87;82.66;100955.97;5035247;28;8829;-58
2023/01/03 06:13:34;;;;;;;;;3.00;3.00;;;;;5.79;82.45;100959.84;5034867;28;9521;-60
2023/01/03 06:18:50;;;;;;;;;5.20;3.80;;;;;5.64;82.88;100956.09;5034846;28;8852;-59
2023/01/03 06:21:18;;;;;;;;;3.00;3.00;;;;;5.56;82.82;100963.47;5035193;28;8864;-59
2023/01/03 06:23:46;;;;;;;;;0.60;0.60;;;;;5.49;83.17;100962.03;5034871;28;8828;-58
2023/01/03 06:26:14;;;;;;;;;3.00;1.00;;;;;5.44;82.96;100968.41;5033397;28;8863;-60
2023/01/03 06:28:42;;;;;;;;;4.80;4.80;;;;;5.39;83.34;100962.50;5035016;28;8868;-60
2023/01/03 06:31:12;;;;;;;;;6.40;4.00;;;;;5.36;83.33;100966.13;5035097;28;8832;-60
2023/01/03 06:33:39;;;;;;;;;4.20;3.00;;;;;5.36;83.15;100966.13;5034370;28;8821;-60
2023/01/03 06:36:07;;;;;;;;;3.20;3.00;;;;;5.36;82.63;100966.13;5034661;28;8910;-60
2023/01/03 06:38:35;;;;;;;;;3.00;3.00;;;;;5.40;83.25;100964.22;5032557;28;8840;-59
2023/01/03 06:41:03;;;;;;;;;4.00;4.00;;;;;5.43;82.83;100966.72;5032132;28;8844;-60
2023/01/03 06:43:30;;;;;;;;;5.60;3.80;;;;;5.46;83.16;100966.59;5032321;28;8852;-59
2023/01/03 06:54:14;;;;;;;;;3.00;3.00;;;;;5.58;82.75;100966.91;5037023;28;8867;-60
2023/01/03 06:56:41;;;;;;;;;4.40;4.00;;;;;5.61;82.39;100968.59;5037160;28;8853;-60
2023/01/03 06:59:09;;;;;;;;;5.20;4.80;;;;;5.62;82.46;100972.94;5036644;28;8832;-60
2023/01/03 07:01:37;;;;;;;;;3.20;2.60;;;;;5.63;82.42;100975.50;5036869;28;8983;-60
2023/01/03 07:04:05;;;;;;;;;6.80;6.80;;;;;5.66;82.23;100963.94;5036689;28;8878;-60
2023/01/03 07:06:33;;;;;;;;;5.60;5.20;;;;;5.70;82.27;100968.19;5036298;28;8832;-60
2023/01/03 07:09:00;;;;;;;;;4.80;4.80;;;;;5.73;81.99;100966.25;5036798;28;8934;-60
2023/01/03 07:11:28;;;;;;;;;6.00;6.00;;;;;5.75;82.20;100958.25;5036629;28;8879;-60
2023/01/03 07:13:58;;;;;;;;;4.00;3.60;;;;;5.76;82.20;100965.28;5036319;28;8848;-60
2023/01/03 07:16:25;;;;;;;;;3.00;3.00;;;;;5.74;82.43;100973.25;5036976;28;8844;-60
2023/01/03 07:18:53;;;;;;;;;3.40;3.40;;;;;5.73;81.93;100960.09;5037892;28;8852;-60
2023/01/03 07:21:22;;;;;;;;;3.40;3.00;;;;;5.69;82.35;100969.94;5037779;28;8836;-60
2023/01/03 07:23:49;;;;;;;;;5.20;4.80;;;;;5.70;82.49;100978.75;5037142;28;8821;-58
2023/01/03 07:26:17;;;;;;;;;3.00;3.00;;;;;5.70;82.72;100981.38;5037173;28;9540;-61
2023/01/03 07:28:45;;;;;;;;;3.20;2.20;;;;;5.73;82.60;100975.97;5037150;28;8841;-60
2023/01/03 07:31:13;;;;;;;;;6.60;6.60;;;;;5.74;82.43;100978.53;5036798;28;9155;-60
2023/01/03 07:33:41;;;;;;;;;3.00;3.00;;;;;5.79;82.15;100987.16;5036980;28;8875;-60
2023/01/03 07:36:08;;;;;;;;;3.00;3.00;;;;;5.85;82.09;100975.47;5036036;28;8836;-60
2023/01/03 07:38:38;;;;;;;;;4.00;4.00;;;;;5.92;82.41;100983.03;5035486;28;8874;-60
2023/01/03 07:41:07;;;;;;;;;4.20;3.80;;;;;5.97;82.04;100986.34;5035228;28;8860;-59
2023/01/03 07:43:37;;;;;;;;;6.00;3.80;;;;;6.05;81.59;100989.50;5035568;28;8836;-60
2023/01/03 07:46:05;;;;;;;;;2.20;1.40;;;;;6.11;81.65;100997.19;5035555;28;8844;-59
2023/01/03 07:48:32;;;;;;;;;3.00;3.00;;;;;6.17;81.45;100996.03;5035753;28;8876;-59
2023/01/03 07:51:00;;;;;;;;;3.00;2.20;;;;;6.24;81.44;101000.13;5035326;28;8820;-60
2023/01/03 07:53:28;;;;;;;;;2.60;1.40;;;;;6.30;81.22;100999.84;5035781;28;8833;-60
2023/01/03 07:55:56;;;;;;;;;4.00;4.00;;;;;6.38;80.89;100997.72;5035555;28;8841;-58
2023/01/03 07:58:24;;;;;;;;;0.00;0.00;;;;;6.43;80.81;100987.75;5035480;28;8858;-59
2023/01/03 08:00:51;;;;;;;;;3.00;3.00;;;;;6.48;80.72;100989.28;5036781;28;8856;-59
2023/01/03 08:03:19;;;;;;;;;6.80;6.20;;;;;6.53;80.95;100989.91;5036326;28;8844;-60
2023/01/03 08:05:47;;;;;;;;;4.00;4.00;;;;;6.58;80.57;100987.06;5037004;28;8847;-59
2023/01/03 08:08:15;;;;;;;;;3.00;3.00;;;;;6.64;80.71;100986.78;5036270;28;8817;-59
2023/01/03 08:13:28;;;;;;;;;3.60;3.60;;;;;6.74;80.61;100994.22;5034808;28;8863;-60
2023/01/03 08:15:55;;;;;;;;;1.00;1.00;;;;;6.78;79.93;100994.94;5033156;28;8853;-60
2023/01/03 08:18:24;;;;;;;;;3.00;2.60;;;;;6.83;80.30;100991.13;5034489;28;8852;-59
2023/01/03 08:20:53;;;;;;;;;3.00;1.40;;;;;6.88;80.51;100996.19;5035052;28;8836;-60
2023/01/03 08:23:22;;;;;;;;;3.00;3.00;;;;;6.92;80.01;100990.72;5035839;28;8844;-60
2023/01/03 08:25:51;;;;;;;;;6.00;4.00;;;;;6.98;80.21;100989.56;5035631;28;8906;-60
2023/01/03 08:28:18;;;;;;;;;3.80;3.40;;;;;7.02;80.40;100986.69;5034427;28;8844;-59
2023/01/03 08:30:46;;;;;;;;;1.00;1.00;;;;;7.04;80.08;100982.16;5033441;28;8863;-58
2023/01/03 08:33:14;;;;;;;;;3.00;3.00;;;;;7.06;79.91;100982.94;5034238;28;8843;-59
2023/01/03 08:35:41;;;;;;;;;2.60;2.60;;;;;7.08;80.02;100983.75;5034213;28;8864;-58
2023/01/03 08:38:09;;;;;;;;;2.60;2.60;;;;;7.11;80.68;100988.88;5033997;28;8846;-60
2023/01/03 08:40:37;;;;;;;;;1.00;0.20;;;;;7.17;79.76;100990.34;5034893;28;8849;-60
2023/01/03 08:43:08;;;;;;;;;2.60;2.60;;;;;7.19;80.11;100983.22;5034900;28;8833;-59
2023/01/03 08:45:36;;;;;;;;;3.00;3.00;;;;;7.19;79.97;100991.16;5034552;28;8855;-59
2023/01/03 08:48:05;;;;;;;;;2.50;2.50;;;;;7.16;80.34;100972.75;5034694;28;8869;-59
2023/01/03 08:50:33;;;;;;;;;0.50;0.00;;;;;7.14;80.19;100982.56;5034535;28;8856;-58
2023/01/03 08:53:01;;;;;;;;;1.00;1.00;;;;;7.15;80.21;100981.63;5033283;28;8840;-58
2023/01/03 08:55:29;;;;;;;;;2.40;2.20;;;;;7.18;80.19;100977.03;5033069;28;8902;-58
2023/01/03 08:57:58;;;;;;;;;1.80;1.80;;;;;7.21;80.11;100991.94;5033400;28;8837;-60
2023/01/03 09:00:26;;;;;;;;;0.50;0.00;;;;;7.24;80.80;100986.47;5032316;28;8833;-60
2023/01/03 09:02:54;;;;;;;;;3.00;1.40;;;;;7.29;79.86;100985.31;5032387;28;9223;-60
2023/01/03 09:05:22;;;;;;;;;2.20;1.00;;;;;7.36;80.11;100985.88;5032932;28;8938;-59
2023/01/03 09:07:51;;;;;;;;;1.00;0.00;;;;;7.41;80.22;100976.75;5033232;28;8933;-60
2023/01/03 09:10:18;;;;;;;;;2.60;2.60;;;;;7.46;80.08;100974.75;5033427;28;8844;-60
2023/01/03 09:12:46;;;;;;;;;3.00;1.00;;;;;7.53;79.78;100983.22;5033263;28;8946;-60
2023/01/03 09:15:14;;;;;;;;;4.00;2.00;;;;;7.58;79.65;100986.53;5034198;28;8934;-59
2023/01/03 09:17:44;;;;;;;;;3.00;3.00;;;;;7.65;79.43;100990.56;5034082;28;9534;-59
2023/01/03 09:20:11;;;;;;;;;3.50;3.50;;;;;7.70;79.36;100992.03;5033977;28;8825;-59
2023/01/03 09:22:39;;;;;;;;;3.00;1.00;;;;;7.80;79.67;100994.16;5034193;28;8820;-60
2023/01/03 09:25:07;;;;;;;;;2.60;2.60;;;;;7.93;79.31;100995.25;5034024;28;8836;-60
2023/01/03 09:27:35;;;;;;;;;3.25;3.25;;;;;8.08;79.13;100999.75;5033038;28;8971;-58
2023/01/03 09:30:03;;;;;;;;;3.00;3.00;;;;;8.20;78.63;100993.81;5032144;28;8844;-60
2023/01/03 09:32:31;;;;;;;;;2.50;2.50;;;;;8.32;78.22;100982.56;5032648;28;9502;-60
2023/01/03 09:34:59;;;;;;;;;3.00;3.00;;;;;8.41;77.99;100984.69;5032478;28;9611;-60
2023/01/03 09:37:27;;;;;;;;;0.25;0.00;;;;;8.53;78.18;100985.84;5032917;28;8959;-60
2023/01/03 09:39:55;;;;;;;;;3.50;3.00;;;;;8.66;77.93;100987.72;5034113;28;8856;-60
2023/01/03 09:45:09;;;;;;;;;2.50;1.00;;;;;8.95;77.54;100973.69;5034316;28;8854;-58
2023/01/03 09:47:37;;;;;;;;;1.00;1.00;;;;;9.04;77.40;100978.47;5034187;28;8991;-59
2023/01/03 09:50:04;;;;;;;;;2.00;1.00;;;;;9.07;77.04;100980.97;5034058;28;8832;-60
2023/01/03 10:03:53;;;;;;;;;0.00;0.00;;;;;10.08;75.02;100986.44;5033040;28;9647;-59
2023/01/03 10:06:22;;;;;;;;;1.00;1.00;;;;;10.34;74.35;100977.72;5032206;28;8836;-60
2023/01/03 10:08:49;;;;;;;;;0.00;0.00;;;;;10.35;74.45;100978.56;5031330;28;8844;-60
2023/01/03 10:11:17;;;;;;;;;1.50;1.00;;;;;10.25;74.49;100986.25;5032265;28;8848;-60
2023/01/03 10:13:45;;;;;;;;;1.00;1.00;;;;;10.20;74.69;100976.84;5032237;28;9514;-60
2023/01/03 10:16:13;;;;;;;;;0.25;0.25;;;;;10.10;75.38;100984.53;5032692;28;8937;-61
2023/01/03 10:18:41;;;;;;;;;2.50;2.50;;;;;9.97;75.54;100977.34;5032042;28;8891;-60
2023/01/03 10:21:09;;;;;;;;;1.00;1.00;;;;;9.83;75.59;100982.66;5035930;28;8856;-60
2023/01/03 10:23:37;;;;;;;;;1.50;1.00;;;;;10.07;75.27;100984.72;5036978;28;8859;-59
2023/01/03 10:26:05;;;;;;;;;1.00;1.00;;;;;10.83;73.72;100992.31;5035829;28;8907;-61
2023/01/03 10:28:33;;;;;;;;;1.00;0.00;;;;;11.24;72.88;100990.47;5036768;28;8840;-60
2023/01/03 10:31:01;;;;;;;;;3.00;1.00;;;;;11.18;72.88;100982.88;5036251;28;8875;-60
2023/01/03 10:33:34;;;;;;;;;1.00;1.00;;;;;10.69;74.04;100984.31;5037246;28;8915;-60
2023/01/03 10:36:02;;;;;;;;;1.50;0.50;;;;;10.15;74.75;100982.44;5037364;28;8855;-61
2023/01/03 10:38:30;;;;;;;;;2.00;2.00;;;;;9.78;76.05;100982.94;5036752;28;8856;-61
2023/01/03 10:41:07;;;;;;;;;2.00;1.00;;;;;9.50;76.78;100988.16;5037576;28;8844;-60
2023/01/03 10:43:35;;;;;;;;;1.00;1.00;;;;;9.29;77.53;100994.75;5036969;28;8970;-60
2023/01/03 10:46:03;;;;;;;;;3.00;3.00;;;;;9.22;77.82;100987.19;5036485;28;8852;-58
2023/01/03 10:48:31;;;;;;;;;1.00;1.00;;;;;9.45;77.27;100984.94;5036365;28;8967;-60
2023/01/03 10:51:19;;;;;;;;;2.00;2.00;;;;;10.53;74.61;100980.06;5035614;28;8840;-61
2023/01/03 10:53:47;;;;;;;;;2.50;2.50;;;;;11.45;72.80;100969.53;5036639;28;8975;-60
2023/01/03 10:56:15;;;;;;;;;0.50;0.50;;;;;12.16;70.97;100963.69;5036195;28;8921;-61
2023/01/03 10:58:43;;;;;;;;;0.75;0.75;;;;;12.26;70.31;100956.75;5036353;28;8856;-59
2023/01/03 11:01:11;;;;;;;;;3.25;3.25;;;;;11.99;71.08;100951.50;5035505;28;8843;-60
2023/01/03 11:03:43;;;;;;;;;2.00;1.50;;;;;11.72;71.45;100952.56;5035596;28;8862;-61
2023/01/03 11:06:18;;;;;;;;;2.50;2.50;;;;;11.36;72.23;100955.00;5035106;28;8840;-60
2023/01/03 11:08:45;;;;;;;;;1.00;1.00;;;;;11.08;73.38;100954.28;5035287;28;8832;-60
2023/01/03 11:11:13;;;;;;;;;1.00;1.00;;;;;11.02;73.21;100960.88;5034743;28;9611;-61
2023/01/03 11:13:42;;;;;;;;;3.00;1.00;;;;;11.21;72.42;100950.69;5035014;28;8868;-61
2023/01/03 11:16:09;;;;;;;;;2.50;2.50;;;;;11.44;72.26;100958.00;5034911;28;8844;-61
2023/01/03 11:18:38;;;;;;;;;0.50;0.50;;;;;11.35;71.60;100934.63;5035518;28;8849;-60
2023/01/03 11:21:06;;;;;;;;;0.00;0.00;;;;;11.22;71.91;100941.72;5034916;28;8962;-61
2023/01/03 11:23:33;;;;;;;;;2.00;1.00;;;;;11.72;71.42;100928.53;5035681;28;8848;-60
2023/01/03 11:26:02;;;;;;;;;3.00;1.00;;;;;12.26;70.10;100932.72;5034093;28;8868;-60
2023/01/03 11:28:30;;;;;;;;;3.75;2.50;;;;;12.24;70.18;100946.16;5034167;28;8844;-60
2023/01/03 11:30:58;;;;;;;;;2.00;2.00;;;;;11.97;70.66;100938.41;5034802;28;8848;-59
2023/01/03 11:33:26;;;;;;;;;0.75;0.75;;;;;11.98;70.86;100924.09;5035095;28;8832;-60
2023/01/03 11:35:56;;;;;;;;;1.00;1.00;;;;;12.01;70.77;100930.91;5035809;28;8844;-60
2023/01/03 11:38:25;;;;;;;;;1.00;0.00;;;;;11.74;70.24;100936.47;5035075;28;8856;-59
2023/01/03 11:40:52;;;;;;;;;1.00;1.00;;;;;11.24;71.46;100937.13;5036195;28;8841;-59
2023/01/03 11:43:21;;;;;;;;;0.25;0.25;;;;;10.82;72.15;100939.09;5036187;28;8965;-60
2023/01/03 11:45:49;;;;;;;;;3.00;2.00;;;;;10.65;73.24;100940.22;5034861;28;8849;-60
2023/01/03 11:48:17;;;;;;;;;1.00;1.00;;;;;10.95;71.77;100930.22;5034667;28;8853;-60
2023/01/03 11:50:45;;;;;;;;;3.25;3.25;;;;;11.17;71.59;100922.53;5034484;28;8837;-60
2023/01/03 11:53:13;;;;;;;;;1.00;1.00;;;;;11.50;70.58;100914.94;5034700;28;8887;-60
2023/01/03 11:55:41;;;;;;;;;1.00;1.00;;;;;12.04;69.33;100908.47;5034991;28;8841;-60
2023/01/03 11:58:09;;;;;;;;;0.50;0.50;;;;;12.43;69.18;100913.66;5035064;28;8843;-60
2023/01/03 12:00:37;;;;;;;;;1.00;1.00;;;;;12.88;67.85;100908.50;5035384;28;8852;-60
2023/01/03 12:03:06;;;;;;;;;0.00;0.00;;;;;13.21;67.40;100902.50;5035382;28;8840;-60
2023/01/03 12:05:34;;;;;;;;;0.00;0.00;;;;;13.07;67.16;100900.00;5035594;28;9538;-61
2023/01/03 12:08:02;;;;;;;;;3.00;2.50;;;;;13.19;67.33;100901.75;5035908;28;8836;-60
2023/01/03 12:10:30;;;;;;;;;1.00;1.00;;;;;12.86;67.50;100896.22;5034750;28;8848;-61
2023/01/03 12:12:58;;;;;;;;;1.00;1.00;;;;;12.46;68.72;100892.09;5035221;28;8871;-59
2023/01/03 12:15:26;;;;;;;;;0.25;0.25;;;;;12.08;70.13;100896.63;5035345;28;8828;-60
2023/01/03 12:17:54;;;;;;;;;0.50;0.50;;;;;11.75;71.04;100887.47;5035783;28;8880;-61
2023/01/03 12:20:22;;;;;;;;;1.00;0.00;;;;;11.53;71.16;100885.38;5035683;28;8844;-60
2023/01/03 12:22:50;;;;;;;;;0.50;0.50;;;;;11.34;71.17;100895.59;5036091;28;8832;-60
2023/01/03 12:25:18;;;;;;;;;2.50;2.50;;;;;11.20;72.03;100901.00;5036144;28;9579;-59
2023/01/03 12:27:46;;;;;;;;;1.00;1.00;;;;;11.11;72.12;100898.06;5035841;28;8841;-58
2023/01/03 12:30:14;;;;;;;;;1.00;1.00;;;;;11.05;72.08;100902.00;5035644;28;8832;-59
2023/01/03 12:32:43;;;;;;;;;1.00;1.00;;;;;11.17;72.25;100901.22;5035340;28;8844;-60
2023/01/03 12:35:11;;;;;;;;;1.00;0.50;;;;;11.15;72.34;100895.09;5035121;28;8821;-60
2023/01/03 12:37:39;;;;;;;;;0.00;0.00;;;;;11.09;72.44;100892.84;5035002;28;8939;-61